2022年8月17日

时间 代码 天气 温度 能见度 天花板 METAR/SPECI
4:00 上午
V
59 °F 9 mi - 010° 010° 7 kt METAR CYHU 170800Z AUTO 01007KT 9SM CLR 15/12 A3009 RMK SLP191
3:00 上午
V
63 °F 9 mi - 010° 010° 7 kt METAR CYHU 170700Z AUTO 01007KT 9SM CLR 17/14 A3009 RMK SLP191 DENSITY ALT 200FT
2:00 上午
V
64 °F 9 mi - 360° 360° 6 kt METAR CYHU 170600Z AUTO 36006KT 9SM FEW140 18/15 A3009 RMK SLP190 DENSITY ALT 300FT
1:00 上午
V
66 °F 9 mi 11.000 ft 360° 360° 7 kt METAR CYHU 170500Z AUTO 36007KT 9SM BKN110 OVC130 19/16 A3009 RMK SLP191 DENSITY ALT 400FT
12:00 上午
V
66 °F 9 mi 13.000 ft 040° 040° 6 kt METAR CYHU 170400Z AUTO 04006KT 9SM SCT110 BKN130 19/17 A3010 RMK SLP193 DENSITY ALT 400FT

2022年8月16日

时间 代码 天气 温度 能见度 天花板 METAR/SPECI
11:00 下午
V
66 °F 9 mi 12.000 ft 030° 030° 7 kt METAR CYHU 170300Z AUTO 03007KT 9SM SCT091 BKN120 19/17 A3009 RMK SLP192 DENSITY ALT 500FT
10:00 下午
V
66 °F 9 mi 10.000 ft 040° 040° 4 kt METAR CYHU 170200Z AUTO 04004KT 9SM BKN100 BKN130 19/17 A3009 RMK SLP192 DENSITY ALT 400FT
9:00 下午
V
68 °F 9 mi 11.000 ft 030° 030° 4 kt METAR CYHU 170100Z AUTO 03004KT 9SM OVC110 20/17 A3010 RMK SLP193 DENSITY ALT 500FT
8:00 下午
V
68 °F 9 mi 11.000 ft 330° 330° 3 kt METAR CYHU 170000Z AUTO 33003KT 9SM OVC110 20/17 A3009 RMK SLP190 DENSITY ALT 600FT
7:00 下午
V
72 °F 9 mi 10.000 ft 340° 340° 3 kt METAR CYHU 162300Z AUTO 34003KT 330V080 9SM OVC100 22/17 A3008 RMK SLP189 DENSITY ALT 700FT
6:45 下午
V
70 °F 9 mi 10.000 ft 110° 110° 6 kt METAR CYHU 162245Z AUTO 11006KT 9SM OVC100 21/16 A3009 RMK SLP190 DENSITY ALT 700FT
6:29 下午
V
70 °F 9 mi 11.000 ft 100° 100° 6 kt METAR CYHU 162229Z AUTO 10006KT 9SM -RA FEW055 OVC110 21/16 A3008 RMK SLP189 DENSITY ALT 700FT
6:00 下午
V
72 °F 9 mi - 120° 120° 10 - 15 kt METAR CYHU 162200Z AUTO 12010G15KT 9SM SCT120 22/15 A3010 RMK SLP193 DENSITY ALT 700FT
5:36 下午
V
72 °F 9 mi 11.000 ft 120° 120° 11 - 16 kt METAR CYHU 162136Z AUTO 12011G16KT 9SM BKN110 BKN150 22/16 A3010 RMK WSHFT AT 2125Z PRESRR SLP194 DENSITY ALT 800FT
5:00 下午
V
68 °F 9 mi 12.000 ft 330° 330° 4 kt METAR CYHU 162100Z AUTO 33004KT 9SM OVC120 20/17 A3009 RMK LTNG DIST E SE PCPN 3.8MM PAST HR SLP190 DENSITY ALT 600FT
4:44 下午
V
68 °F 9 mi 11.000 ft 010° 010° 5 kt METAR CYHU 162044Z AUTO 01005KT 9SM FEW055 OVC110 20/16 A3009 RMK LTNG DIST E SE PCPN 3.8MM PAST HR SLP192 DENSITY ALT 600FT
4:16 下午
V
68 °F 6 mi 5.500 ft 210° 210° 13 - 30 kt METAR CYHU 162016Z AUTO 21013G30KT 150V210 6SM TSRA SCT043 BKN055 OVC075 20/13 A3012 RMK LTNG DIST E PCPN 2.8MM PAST HR SLP200 DENSITY ALT 500FT
4:13 下午
V
68 °F 5 mi 5.000 ft 180° 180° 21 - 30 kt METAR CYHU 162013Z AUTO 18021G30KT 110V200 5SM TSRA SCT039 BKN050 OVC066 20/14 A3012 RMK LTNG DIST E PCPN 2.5MM PAST HR SLP202 DENSITY ALT 500FT
4:03 下午
I
70 °F 3 mi 5.500 ft 130° 130° 12 - 19 kt METAR CYHU 162003Z AUTO 13012G19KT 070V140 3SM +TSRA FEW020 SCT045 BKN055 OVC100 21/17 A3012 RMK PRESRR PCPN 1.0MM PAST HR SLP201 DENSITY ALT 600FT
4:00 下午
V
72 °F 5 mi 5.500 ft 100° 100° 12 - 19 kt METAR CYHU 162000Z AUTO 10012G19KT 5SM -TSRA FEW046 BKN055 BKN081 BKN100 22/18 A3012 RMK PRESRR PCPN 2.0MM PAST HR SLP202 DENSITY ALT 800FT
3:57 下午
V
73 °F 9 mi 7.600 ft 100° 100° 15 - 22 kt METAR CYHU 161957Z AUTO 10015G22KT 9SM TS SCT055 BKN076 BKN100 23/17 A3011 RMK WSHFT AT 1948Z PRESRR SLP198 DENSITY ALT 900FT
3:37 下午
V
81 °F 9 mi - 050° 050° 7 kt METAR CYHU 161937Z AUTO 05007KT 9SM TS FEW110 27/17 A3008 RMK LTNG DIST NE E SLP187 DENSITY ALT 1400FT
3:32 下午
V
82 °F 9 mi - 060° 060° 7 kt METAR CYHU 161932Z AUTO 06007KT 9SM VCTS FEW055 28/16 A3008 RMK LTNG DIST NE E SLP187 DENSITY ALT 1400FT
3:00 下午
V
79 °F 9 mi - 030° 030° 6 kt METAR CYHU 161900Z AUTO 03006KT 9SM FEW050 26/17 A3008 RMK LTNG DIST NE E SLP188 DENSITY ALT 1300FT
2:00 下午
V
81 °F 9 mi - 060° 060° 6 kt METAR CYHU 161800Z AUTO 06006KT 010V080 9SM CLR 27/17 A3010 RMK LTNG DIST SE SLP193 DENSITY ALT 1400FT
1:00 下午
V
79 °F 7 mi - 060° 060° 9 kt METAR CYHU 161700Z AUTO 06009KT 7SM CLR 26/18 A3010 RMK SLP195 DENSITY ALT 1200FT
12:41 下午
V
79 °F 8 mi - 050° 050° 7 kt METAR CYHU 161641Z AUTO 05007KT 360V090 8SM CLR 26/17 A3010 RMK SLP196 DENSITY ALT 1200FT
12:37 下午
V
79 °F 5 mi - 040° 040° 5 kt METAR CYHU 161637Z AUTO 04005KT 360V090 5SM HZ CLR 26/18 A3010 RMK SLP196 DENSITY ALT 1200FT
12:00 下午
V
77 °F 9 mi - 050° 050° 5 kt METAR CYHU 161600Z AUTO 05005KT 9SM CLR 25/18 A3011 RMK SLP197 DENSITY ALT 1100FT
11:00 上午
V
73 °F 9 mi - 050° 050° 6 kt METAR CYHU 161500Z AUTO 05006KT 360V080 9SM CLR 23/17 A3011 RMK SLP197 DENSITY ALT 900FT
10:00 上午
V
70 °F 9 mi - 040° 040° 7 kt METAR CYHU 161400Z AUTO 04007KT 9SM CLR 21/16 A3010 RMK SLP193 DENSITY ALT 700FT
9:00 上午
V
68 °F 9 mi - 030° 030° 7 kt METAR CYHU 161300Z AUTO 03007KT 9SM CLR 20/16 A3010 RMK SLP193 DENSITY ALT 500FT
8:00 上午
V
64 °F 9 mi - 040° 040° 6 kt METAR CYHU 161200Z AUTO 04006KT 9SM CLR 18/16 A3009 RMK SLP191 DENSITY ALT 300FT
7:00 上午
V
61 °F 9 mi - 010° 010° 6 kt METAR CYHU 161100Z AUTO 01006KT 9SM CLR 16/15 A3008 RMK SLP189 DENSITY ALT 100FT
6:00 上午
V
57 °F 9 mi - 350° 350° 5 kt METAR CYHU 161000Z AUTO 35005KT 9SM CLR 14/13 A3007 RMK SLP183
5:00 上午
V
55 °F 9 mi - 010° 010° 4 kt METAR CYHU 160900Z AUTO 01004KT 9SM CLR 13/12 A3006 RMK SLP180
4:00 上午
V
59 °F 9 mi - 350° 350° 4 kt METAR CYHU 160800Z AUTO 35004KT 9SM SCT076 15/13 A3005 RMK SLP177
3:00 上午
V
59 °F 9 mi - 350° 350° 5 kt METAR CYHU 160700Z AUTO 35005KT 9SM CLR 15/13 A3005 RMK SLP178
2:00 上午
V
61 °F 9 mi - 350° 350° 4 kt METAR CYHU 160600Z AUTO 35004KT 9SM FEW076 16/14 A3005 RMK SLP176 DENSITY ALT 200FT
1:00 上午
V
63 °F 9 mi - 020° 020° 5 kt METAR CYHU 160500Z AUTO 02005KT 9SM FEW071 SCT250 17/14 A3005 RMK SLP176 DENSITY ALT 300FT
12:00 上午
V
61 °F 9 mi - 350° 350° 5 kt METAR CYHU 160400Z AUTO 35005KT 9SM CLR 16/12 A3005 RMK SLP178 DENSITY ALT 100FT

2022年8月15日

时间 代码 天气 温度 能见度 天花板 METAR/SPECI
11:00 下午
V
61 °F 9 mi - 010° 010° 2 kt METAR CYHU 160300Z AUTO 01002KT 9SM CLR 16/14 A3005 RMK SLP176 DENSITY ALT 200FT
10:00 下午
V
64 °F 9 mi - 040° 040° 2 kt METAR CYHU 160200Z AUTO 04002KT 9SM CLR 18/14 A3004 RMK SLP174 DENSITY ALT 300FT
9:00 下午
V
64 °F 9 mi - 040° 040° 2 kt METAR CYHU 160100Z AUTO 04002KT 9SM CLR 18/14 A3003 RMK SLP170 DENSITY ALT 400FT
8:00 下午
V
72 °F 9 mi - 030° 030° 3 kt METAR CYHU 160000Z AUTO 03003KT 9SM CLR 22/13 A3000 RMK SLP162 DENSITY ALT 900FT
7:00 下午
V
75 °F 9 mi - 060° 060° 5 kt METAR CYHU 152300Z AUTO 06005KT 9SM CLR 24/15 A3000 RMK SLP160 DENSITY ALT 1100FT
6:10 下午
V
79 °F 9 mi - 050° 050° 4 kt METAR CYHU 152210Z AUTO 05004KT 9SM FEW002 26/15 A2999 RMK SLP158 DENSITY ALT 1300FT
6:00 下午
V
79 °F 9 mi - 050° 050° 3 kt METAR CYHU 152200Z AUTO 05003KT 9SM CLR 26/13 A2999 RMK SLP158 DENSITY ALT 1400FT
5:00 下午
V
81 °F 9 mi - 050° 050° 5 kt METAR CYHU 152100Z AUTO 05005KT 9SM CLR 27/13 A2999 RMK SLP159 DENSITY ALT 1400FT
4:00 下午
V
81 °F 9 mi - 040° 040° 5 kt METAR CYHU 152000Z AUTO 04005KT 020V090 9SM CLR 27/14 A3000 RMK SLP161 DENSITY ALT 1400FT
3:00 下午
V
81 °F 9 mi - 330° 330° 3 kt METAR CYHU 151900Z AUTO 33003KT 310V110 9SM CLR 27/12 A3001 RMK SLP164 DENSITY ALT 1400FT
2:00 下午
V
81 °F 7 mi - 090° 090° 4 kt METAR CYHU 151800Z AUTO 09004KT 050V120 7SM CLR 27/13 A3002 RMK SLP166 DENSITY ALT 1400FT
1:00 下午
V
81 °F 9 mi - 120° 120° 5 kt METAR CYHU 151700Z AUTO 12005KT 360V140 9SM CLR 27/13 A3002 RMK SLP167 DENSITY ALT 1400FT
12:00 下午
V
77 °F 7 mi - 080° 080° 5 kt METAR CYHU 151600Z AUTO 08005KT 020V130 7SM CLR 25/15 A3003 RMK SLP171 DENSITY ALT 1200FT
11:41 上午
V
77 °F 6 mi - Var 000° 0 kt METAR CYHU 151541Z AUTO 00000KT 6SM HZ CLR 25/14 A3003 RMK SLP171 DENSITY ALT 1200FT
11:26 上午
V
77 °F 5 mi - Var Var 2 kt METAR CYHU 151526Z AUTO VRB02KT 5SM HZ CLR 25/16 A3003 RMK SLP171 DENSITY ALT 1100FT
11:00 上午
V
75 °F 9 mi - Var 000° 0 kt METAR CYHU 151500Z AUTO 00000KT 9SM CLR 24/14 A3004 RMK SLP173 DENSITY ALT 1000FT
10:00 上午
V
72 °F 9 mi - Var 000° 0 kt METAR CYHU 151400Z AUTO 00000KT 9SM CLR 22/16 A3004 RMK SLP174 DENSITY ALT 800FT
9:00 上午
V
68 °F 9 mi - Var Var 2 kt METAR CYHU 151300Z AUTO VRB02KT 9SM CLR 20/15 A3004 RMK SLP174 DENSITY ALT 600FT
8:00 上午
V
64 °F 9 mi - Var 000° 0 kt METAR CYHU 151200Z AUTO 00000KT 9SM CLR 18/14 A3003 RMK SLP172 DENSITY ALT 300FT
7:00 上午
V
57 °F 9 mi - 140° 140° 3 kt METAR CYHU 151100Z AUTO 14003KT 9SM CLR 14/13 A3002 RMK SLP169
6:00 上午
V
55 °F 9 mi - 140° 140° 3 kt METAR CYHU 151000Z AUTO 14003KT 9SM CLR 13/12 A3002 RMK SLP168
5:00 上午
V
55 °F 9 mi - 170° 170° 3 kt METAR CYHU 150900Z AUTO 17003KT 9SM CLR 13/12 A3002 RMK SLP166
较旧的数据

我们和第三方通过cookies跟踪您在我们网站上的上网行为。如果您继续,我们认为您同意我们的cookie政策。 了解更多